createdAt,value
2022-11-04T00:12:39.787Z,10.2
2022-11-04T00:32:44.260Z,10.1
2022-11-04T00:42:46.467Z,10.1
2022-11-04T00:52:48.935Z,10.1
2022-11-04T01:02:51.152Z,10
2022-11-04T01:12:53.262Z,9.8
2022-11-04T01:22:55.557Z,9.9
2022-11-04T01:32:57.307Z,10
2022-11-04T01:42:59.026Z,10
2022-11-04T01:53:01.031Z,10
2022-11-04T02:03:02.689Z,10
2022-11-04T02:13:05.012Z,10
2022-11-04T02:23:07.330Z,10
2022-11-04T02:33:09.650Z,10
2022-11-04T02:43:11.777Z,9.8
2022-11-04T02:53:13.220Z,9.8
2022-11-04T03:03:15.282Z,9.8
2022-11-04T03:13:17.381Z,9.8
2022-11-04T03:23:19.308Z,9.8
2022-11-04T03:33:21.806Z,9.9
2022-11-04T03:43:24.280Z,9.7
2022-11-04T04:03:28.501Z,9.2
2022-11-04T04:13:31.044Z,9.2
2022-11-04T04:23:33.123Z,9
2022-11-04T04:33:34.986Z,9
2022-11-04T04:43:37.176Z,9
2022-11-04T04:53:39.062Z,9
2022-11-04T05:03:44.915Z,8.9
2022-11-04T05:13:43.423Z,8.8
2022-11-04T05:33:48.046Z,8.7
2022-11-04T05:53:52.360Z,8.5
2022-11-04T06:03:54.181Z,8.5
2022-11-04T06:13:56.390Z,8.5
2022-11-04T06:23:58.769Z,8.5
2022-11-04T06:34:00.436Z,8.4
2022-11-04T06:44:02.391Z,8.5
2022-11-04T06:54:04.929Z,8.5
2022-11-04T07:04:07.303Z,8.4
2022-11-04T07:14:09.395Z,8.5
2022-11-04T07:24:11.162Z,8.5
2022-11-04T07:34:12.872Z,8.7
2022-11-04T07:44:14.817Z,8.8
2022-11-04T07:54:16.827Z,8.9
2022-11-04T08:04:18.927Z,9.2
2022-11-04T08:14:20.962Z,9.3
2022-11-04T08:24:23.052Z,9.4
2022-11-04T08:34:24.757Z,9.4
2022-11-04T08:44:26.529Z,9.7
2022-11-04T08:54:28.513Z,10.1
2022-11-04T09:04:30.662Z,10.3
2022-11-04T09:14:32.488Z,10.6
2022-11-04T09:24:34.775Z,11.1
2022-11-04T09:34:37.074Z,11.2
2022-11-04T09:44:53.597Z,11.1
2022-11-04T09:54:46.982Z,10.6
2022-11-04T10:04:44.564Z,10.6
2022-11-04T10:14:46.742Z,10.8
2022-11-04T10:24:48.735Z,11
2022-11-04T10:34:50.913Z,10.9
2022-11-04T10:44:52.771Z,10.9
2022-11-04T10:54:54.673Z,10.9
2022-11-04T11:04:56.949Z,10.9
2022-11-04T11:14:59.187Z,11.1
2022-11-04T11:25:01.503Z,10.8
2022-11-04T11:35:06.582Z,10.9
2022-11-04T11:45:06.331Z,11
2022-11-04T11:55:08.517Z,11.1
2022-11-04T12:15:12.830Z,10.9
2022-11-04T12:25:14.841Z,11.2
2022-11-04T12:35:16.861Z,11.1
2022-11-04T12:45:18.987Z,10.9
2022-11-04T12:55:21.263Z,11
2022-11-04T13:15:25.288Z,11.2
2022-11-04T13:25:27.270Z,11.2
2022-11-04T13:35:28.969Z,11.2
2022-11-04T13:45:31.535Z,11.3
2022-11-04T13:55:33.364Z,11.2
2022-11-04T14:05:35.642Z,11.3
2022-11-04T14:15:37.344Z,11.2
2022-11-04T14:25:39.710Z,11.2
2022-11-04T14:35:41.621Z,11
2022-11-04T14:45:43.452Z,11
2022-11-04T14:55:46.027Z,11
2022-11-04T15:05:50.696Z,11
2022-11-04T15:15:50.873Z,10.9
2022-11-04T15:25:53.484Z,10.9
2022-11-04T15:35:55.172Z,10.8
2022-11-04T15:45:57.088Z,10.8
2022-11-04T15:55:59.644Z,10.7
2022-11-04T16:06:01.725Z,10.6
2022-11-04T16:16:04.039Z,10.5
2022-11-04T16:36:08.342Z,10.4
2022-11-04T16:46:10.279Z,10.3
2022-11-04T16:56:12.943Z,10.3
2022-11-04T17:06:14.838Z,10.3
2022-11-04T17:16:17.273Z,10.2
2022-11-04T17:26:19.563Z,10.1
2022-11-04T17:36:22.178Z,10
2022-11-04T17:46:23.907Z,10
2022-11-04T17:56:26.404Z,10
2022-11-04T18:06:28.644Z,9.9
2022-11-04T18:16:30.963Z,9.7
2022-11-04T18:26:32.860Z,9.6
2022-11-04T18:36:34.831Z,9.4
2022-11-04T18:36:41.719Z,9.4
2022-11-04T18:56:46.363Z,9
2022-11-04T19:16:49.938Z,8.8
2022-11-04T19:36:54.191Z,8.7
2022-11-04T20:27:04.746Z,8.2
2022-11-04T20:37:06.804Z,8.2
2022-11-04T20:47:09.083Z,8.2
2022-11-04T20:57:11.150Z,8.1
2022-11-04T21:27:17.501Z,8.2
2022-11-04T21:47:21.486Z,8.3
2022-11-04T21:57:23.884Z,8.3
2022-11-04T22:07:26.036Z,8.1
2022-11-04T22:17:28.136Z,7.8
2022-11-04T22:27:30.182Z,7.8
2022-11-04T22:37:32.445Z,7.9
2022-11-04T22:47:34.224Z,7.8
2022-11-04T22:57:36.242Z,7.6
2022-11-04T23:07:38.587Z,7.5
2022-11-04T23:17:40.399Z,7.3
2022-11-04T23:27:42.141Z,7
2022-11-04T23:37:44.774Z,6.8
2022-11-04T23:47:47.267Z,6.7
2022-11-04T23:57:49.170Z,6.5
